METAR Data
IDs: Format: Raw Decoded Include TAF

Data at: 2346 UTC 29 May 2020

METAR for:KEST (Estherville Muni, IA, US)
Text:KEST 292252Z AUTO 34011G19KT 10SM CLR 20/06 A3015 RMK AO2 SLP210 T02000061
Temperature: 20.0°C ( 68°F)
Dewpoint: 6.1°C ( 43°F) [RH = 40%]
Pressure (altimeter):30.15 inches Hg (1021.1 mb) [Sea level pressure: 1021.0 mb]
Winds:from the NNW (340 degrees) at 13 MPH (11 knots; 5.7 m/s) gusting to 22 MPH (19 knots; 9.8 m/s)
Visibility:10 or more sm (16+ km)
Ceiling:at least 12,000 feet AGL
Clouds:sky clear below 12,000 feet AGL
QC Flag:automated observation with no human augmentation